Time;durP1;ratioP1;P1;durP2;ratioP2;P2;SDS_P1;SDS_P2;PMS_P1;PMS_P2;Temp;Humidity;BMP_temperature;BMP_pressure;BME280_temperature;BME280_humidity;BME280_pressure;Samples;Min_cycle;Max_cycle;Signal;HPM_P1;HPM_P2
2023/12/15 00:02:18;;;;;;;1.50;1.35;;;6.10;99.90;;;;;;6187336;23;20012;-69
2023/12/15 00:04:43;;;;;;;2.40;1.67;;;6.10;99.90;;;;;;6185301;23;20024;-69
2023/12/15 00:07:10;;;;;;;0.60;0.60;;;6.10;99.90;;;;;;6213488;23;20012;-67
2023/12/15 00:09:49;;;;;;;16.23;1.45;;;6.10;99.90;;;;;;6186443;23;20602;-67
2023/12/15 00:12:15;;;;;;;1.27;0.85;;;6.10;99.90;;;;;;6186797;23;20368;-70
2023/12/15 00:14:40;;;;;;;0.88;0.88;;;6.20;99.90;;;;;;6185642;23;20012;-72
2023/12/15 00:17:13;;;;;;;1.38;1.27;;;6.20;99.90;;;;;;6210669;23;20008;-68
2023/12/15 00:19:39;;;;;;;;;;;6.20;99.90;;;;;;6213703;23;20020;-70
2023/12/15 00:22:05;;;;;;;0.73;0.70;;;6.20;99.90;;;;;;6184898;23;19939;-68
2023/12/15 00:24:30;;;;;;;1.27;1.05;;;6.20;99.90;;;;;;6183503;23;20066;-70
2023/12/15 00:26:58;;;;;;;4.13;1.55;;;6.20;99.90;;;;;;6211625;23;20036;-69
2023/12/15 00:29:25;;;;;;;1.70;1.60;;;6.20;99.90;;;;;;6212677;23;20012;-71
2023/12/15 00:31:50;;;;;;;2.58;1.45;;;6.20;99.90;;;;;;6213880;23;20309;-68
2023/12/15 00:34:16;;;;;;;4.32;1.85;;;6.20;99.90;;;;;;6214528;23;20015;-70
2023/12/15 00:36:41;;;;;;;1.65;1.20;;;6.20;99.90;;;;;;6187236;23;20016;-71
2023/12/15 00:39:07;;;;;;;1.45;0.77;;;6.20;99.90;;;;;;6187592;23;20440;-69
2023/12/15 00:41:32;;;;;;;1.50;1.40;;;6.20;99.90;;;;;;6213926;23;20015;-69
2023/12/15 00:43:58;;;;;;;2.17;1.77;;;6.30;99.90;;;;;;6187530;23;20058;-68
2023/12/15 00:46:23;;;;;;;2.45;1.75;;;6.30;99.90;;;;;;6187284;23;20086;-68
2023/12/15 00:48:49;;;;;;;2.28;1.17;;;6.30;99.90;;;;;;6215277;23;20009;-67
2023/12/15 00:51:15;;;;;;;1.45;1.35;;;6.30;99.90;;;;;;6162708;23;20020;-70
2023/12/15 00:53:40;;;;;;;2.90;2.70;;;6.30;99.90;;;;;;6188684;23;20020;-68
2023/12/15 00:56:09;;;;;;;3.58;1.73;;;6.30;99.90;;;;;;6186607;23;20004;-70
2023/12/15 00:58:35;;;;;;;1.95;1.27;;;6.30;99.90;;;;;;6183864;23;20017;-70
2023/12/15 01:01:01;;;;;;;1.73;0.80;;;6.40;99.90;;;;;;6186628;23;20009;-69
2023/12/15 01:03:30;;;;;;;1.17;1.00;;;6.40;99.90;;;;;;6187253;23;20012;-70
2023/12/15 01:05:55;;;;;;;6.80;1.40;;;6.40;99.90;;;;;;6186000;23;20016;-69
2023/12/15 01:08:21;;;;;;;1.23;1.08;;;6.40;99.90;;;;;;6188265;23;20009;-71
2023/12/15 01:10:47;;;;;;;2.13;1.83;;;6.40;99.90;;;;;;6187080;23;20039;-69
2023/12/15 01:13:13;;;;;;;5.85;1.58;;;6.50;99.90;;;;;;6186485;23;20019;-69
2023/12/15 01:15:39;;;;;;;2.92;2.05;;;6.40;99.90;;;;;;6187038;23;20100;-69
2023/12/15 01:18:04;;;;;;;2.42;1.65;;;6.50;99.90;;;;;;6187203;23;20013;-70
2023/12/15 01:20:30;;;;;;;2.38;2.20;;;6.50;99.90;;;;;;6188127;23;20060;-70
2023/12/15 01:22:55;;;;;;;0.85;0.85;;;6.50;99.90;;;;;;6186940;23;20384;-71
2023/12/15 01:25:21;;;;;;;1.77;1.30;;;6.50;99.90;;;;;;6213617;23;20013;-71
2023/12/15 01:27:47;;;;;;;2.45;1.52;;;6.60;99.90;;;;;;6214557;23;20555;-70
2023/12/15 01:30:12;;;;;;;5.47;2.13;;;6.60;99.90;;;;;;6188874;23;20502;-69
2023/12/15 01:32:38;;;;;;;1.65;1.55;;;6.50;99.90;;;;;;6187749;23;20027;-69
2023/12/15 01:35:04;;;;;;;3.03;1.13;;;6.60;99.90;;;;;;6213354;23;20492;-70
2023/12/15 01:37:30;;;;;;;2.20;1.58;;;6.60;99.90;;;;;;6187607;23;20379;-69
2023/12/15 01:39:56;;;;;;;2.22;0.85;;;6.60;99.90;;;;;;6215660;23;20071;-69
2023/12/15 01:42:22;;;;;;;1.25;1.05;;;6.60;99.90;;;;;;6189678;23;20345;-69
2023/12/15 01:44:48;;;;;;;2.67;0.93;;;6.60;99.90;;;;;;6189270;23;20019;-69
2023/12/15 01:47:17;;;;;;;3.50;1.20;;;6.60;99.90;;;;;;6189413;23;20472;-69
2023/12/15 01:49:43;;;;;;;1.95;1.38;;;6.60;99.90;;;;;;6215763;23;20767;-71
2023/12/15 01:52:09;;;;;;;1.58;1.17;;;6.60;99.90;;;;;;6163784;23;20341;-69
2023/12/15 01:54:34;;;;;;;5.03;1.35;;;6.60;99.90;;;;;;6216110;23;20016;-69
2023/12/15 01:57:00;;;;;;;3.28;1.50;;;6.60;99.90;;;;;;6216576;23;20088;-69
2023/12/15 02:00:22;;;;;;;2.03;1.73;;;6.70;99.90;;;;;;6187757;23;20437;-69
2023/12/15 02:02:47;;;;;;;0.95;0.95;;;6.70;99.90;;;;;;6189912;23;20027;-68
2023/12/15 02:05:14;;;;;;;1.98;1.88;;;6.70;99.90;;;;;;6188307;23;20016;-70
2023/12/15 02:07:40;;;;;;;1.08;1.00;;;6.70;99.90;;;;;;6214466;23;20024;-69
2023/12/15 02:10:06;;;;;;;2.10;1.73;;;6.70;99.90;;;;;;6187992;23;20021;-70
2023/12/15 02:12:31;;;;;;;0.65;0.57;;;6.70;99.90;;;;;;6189669;23;20051;-68
2023/12/15 02:14:59;;;;;;;0.40;0.40;;;6.80;99.90;;;;;;6188116;23;20019;-69
2023/12/15 02:17:24;;;;;;;2.97;1.80;;;6.70;99.90;;;;;;6187368;23;20019;-69
2023/12/15 02:19:50;;;;;;;1.90;1.05;;;6.80;99.90;;;;;;6188835;23;20087;-69
2023/12/15 02:22:15;;;;;;;3.72;2.35;;;6.80;99.90;;;;;;6188249;23;20017;-70
2023/12/15 02:24:41;;;;;;;1.42;1.25;;;6.80;99.90;;;;;;6185762;23;20095;-70
2023/12/15 02:27:06;;;;;;;0.77;0.65;;;6.80;99.90;;;;;;6186640;23;20457;-70
2023/12/15 02:29:33;;;;;;;1.55;1.45;;;6.80;99.90;;;;;;6187454;23;20440;-70
2023/12/15 02:31:58;;;;;;;2.03;0.80;;;6.90;99.90;;;;;;6215936;23;20128;-70
2023/12/15 02:34:25;;;;;;;1.90;1.73;;;6.80;99.90;;;;;;6187918;23;20048;-69
2023/12/15 02:36:51;;;;;;;3.08;1.63;;;6.80;99.90;;;;;;6163191;23;20019;-69
2023/12/15 02:39:16;;;;;;;1.08;1.08;;;6.80;99.90;;;;;;6214932;23;20329;-69
2023/12/15 02:41:44;;;;;;;2.78;1.25;;;6.70;99.90;;;;;;6215536;23;20012;-69
2023/12/15 02:44:10;;;;;;;3.25;1.45;;;6.80;99.90;;;;;;6188602;23;20463;-69
2023/12/15 02:46:37;;;;;;;1.13;1.10;;;6.70;99.90;;;;;;6188530;23;20012;-69
2023/12/15 02:49:02;;;;;;;1.27;1.10;;;6.80;99.90;;;;;;6188805;23;20062;-69
2023/12/15 02:51:29;;;;;;;3.60;1.55;;;6.70;99.90;;;;;;6188557;23;20095;-69
2023/12/15 02:53:57;;;;;;;0.60;0.60;;;6.70;99.90;;;;;;6188692;23;20021;-69
2023/12/15 02:56:23;;;;;;;1.92;1.48;;;6.70;99.90;;;;;;6189101;23;20009;-70
2023/12/15 02:58:48;;;;;;;1.45;1.35;;;6.70;99.90;;;;;;6188680;23;20459;-69
2023/12/15 03:01:14;;;;;;;5.63;1.23;;;6.70;99.90;;;;;;6188290;23;20013;-69
2023/12/15 03:03:40;;;;;;;3.08;2.38;;;6.70;99.90;;;;;;6189236;23;20377;-70
2023/12/15 03:06:05;;;;;;;3.03;1.98;;;6.70;99.90;;;;;;6216322;23;20012;-69
2023/12/15 03:08:31;;;;;;;4.45;2.38;;;6.80;99.90;;;;;;6188273;23;20096;-69
2023/12/15 03:10:57;;;;;;;2.45;1.50;;;6.70;99.90;;;;;;6214348;23;20019;-69
2023/12/15 03:13:28;;;;;;;2.22;1.83;;;6.80;99.90;;;;;;6215199;23;20019;-70
2023/12/15 03:15:55;;;;;;;7.22;2.63;;;6.80;99.90;;;;;;6187581;23;20013;-71
2023/12/15 03:18:25;;;;;;;0.47;0.47;;;6.90;99.90;;;;;;6188577;23;20004;-69
2023/12/15 03:20:50;;;;;;;2.97;1.50;;;6.90;99.90;;;;;;6215148;23;20005;-70
2023/12/15 03:23:16;;;;;;;2.50;1.15;;;6.90;99.90;;;;;;6188423;23;20519;-70
2023/12/15 03:25:41;;;;;;;5.70;2.30;;;6.90;99.90;;;;;;6188203;23;20016;-70
2023/12/15 03:28:09;;;;;;;1.23;1.13;;;6.90;99.90;;;;;;6188390;23;20012;-69
2023/12/15 03:30:34;;;;;;;4.05;2.03;;;6.90;99.90;;;;;;6215249;23;20332;-69
2023/12/15 03:33:00;;;;;;;2.78;2.20;;;6.90;99.90;;;;;;6187713;23;20016;-69
2023/12/15 03:35:25;;;;;;;4.07;2.55;;;6.90;99.90;;;;;;6188621;23;20016;-70
2023/12/15 03:37:51;;;;;;;5.75;2.30;;;6.90;99.90;;;;;;6215555;23;20096;-69
2023/12/15 03:40:17;;;;;;;4.03;1.88;;;6.90;99.90;;;;;;6187066;23;20428;-70
2023/12/15 03:42:42;;;;;;;2.95;2.40;;;6.90;99.90;;;;;;6188559;23;20009;-70
2023/12/15 03:45:14;;;;;;;2.25;1.55;;;6.90;99.90;;;;;;6188127;23;20020;-70
2023/12/15 03:47:39;;;;;;;2.70;2.30;;;6.80;99.90;;;;;;6188249;23;20044;-70
2023/12/15 03:50:06;;;;;;;8.80;3.78;;;6.70;99.90;;;;;;6188622;23;20572;-70
2023/12/15 03:52:31;;;;;;;1.05;1.00;;;6.70;99.90;;;;;;6188392;23;20052;-70
2023/12/15 03:54:57;;;;;;;0.80;0.80;;;6.60;99.90;;;;;;6188404;23;20019;-70
2023/12/15 03:57:22;;;;;;;3.50;2.38;;;6.60;99.90;;;;;;6187336;23;20071;-70
2023/12/15 03:59:48;;;;;;;2.72;2.28;;;6.60;99.90;;;;;;6215360;23;20012;-69
2023/12/15 04:02:15;;;;;;;1.38;1.10;;;6.60;99.90;;;;;;6188251;23;20447;-69
2023/12/15 04:04:42;;;;;;;8.50;3.38;;;6.50;99.90;;;;;;6214387;23;20340;-69
2023/12/15 04:07:08;;;;;;;1.50;0.98;;;6.40;99.90;;;;;;6188820;23;20017;-69
2023/12/15 04:09:33;;;;;;;2.58;1.65;;;6.40;99.90;;;;;;6188646;23;20509;-69
2023/12/15 04:12:30;;;;;;;1.42;1.08;;;6.40;99.90;;;;;;6189327;23;20017;-69
2023/12/15 04:14:56;;;;;;;2.05;1.42;;;6.30;99.90;;;;;;6188836;23;20019;-68
2023/12/15 04:17:22;;;;;;;1.75;0.95;;;6.30;99.90;;;;;;6216096;23;20005;-68
2023/12/15 04:19:47;;;;;;;1.85;1.58;;;6.20;99.90;;;;;;6216218;23;20009;-68
2023/12/15 04:25:53;;;;;;;6.40;2.83;;;6.10;99.90;;;;;;6215940;23;20016;-69
2023/12/15 04:28:19;;;;;;;3.33;2.17;;;6.10;99.90;;;;;;6189365;23;20328;-69
2023/12/15 04:38:06;;;;;;;5.15;2.50;;;6.00;99.90;;;;;;6215314;23;20070;-69
2023/12/15 04:40:31;;;;;;;2.22;1.00;;;5.90;99.90;;;;;;6164037;23;20008;-70
2023/12/15 04:46:23;;;;;;;2.78;2.25;;;5.90;99.90;;;;;;6215720;23;20095;-69
2023/12/15 04:48:49;;;;;;;1.80;1.65;;;5.90;99.90;;;;;;6188921;23;20023;-69
2023/12/15 04:51:14;;;;;;;9.77;2.53;;;5.80;99.90;;;;;;6189223;23;20008;-69
2023/12/15 04:53:47;;;;;;;7.18;2.47;;;5.80;99.90;;;;;;6164072;23;20083;-68
2023/12/15 04:56:13;;;;;;;3.85;1.92;;;5.80;99.90;;;;;;6189212;23;20015;-69
2023/12/15 04:58:39;;;;;;;3.30;2.53;;;5.80;99.90;;;;;;6215713;23;20327;-69
2023/12/15 05:01:05;;;;;;;1.88;1.17;;;5.70;99.90;;;;;;6188378;23;20392;-68
2023/12/15 05:03:35;;;;;;;3.47;1.98;;;5.70;99.90;;;;;;6189139;23;20005;-69
2023/12/15 05:06:01;;;;;;;2.47;1.58;;;5.70;99.90;;;;;;6189112;23;20331;-69
2023/12/15 05:08:26;;;;;;;5.72;2.50;;;5.70;99.90;;;;;;6189106;23;20092;-69
2023/12/15 05:10:52;;;;;;;11.63;3.33;;;5.70;99.90;;;;;;6188963;23;20020;-68
2023/12/15 05:13:17;;;;;;;1.85;1.75;;;5.70;99.90;;;;;;6188911;23;20013;-68
2023/12/15 05:15:43;;;;;;;4.85;2.22;;;5.70;99.90;;;;;;6215192;23;20039;-68
2023/12/15 05:18:09;;;;;;;1.85;0.85;;;5.80;99.90;;;;;;6215594;23;20008;-69
2023/12/15 05:20:38;;;;;;;2.47;2.13;;;5.80;99.90;;;;;;6216571;23;20468;-69
2023/12/15 05:23:52;;;;;;;1.75;1.60;;;5.80;99.90;;;;;;6217604;23;20336;-69
2023/12/15 05:26:17;;;;;;;3.63;2.88;;;5.80;99.90;;;;;;6165478;23;20158;-70
2023/12/15 05:28:44;;;;;;;1.90;0.85;;;5.90;99.90;;;;;;6217220;23;20063;-69
2023/12/15 05:31:10;;;;;;;9.25;3.05;;;5.90;99.90;;;;;;6190016;23;20019;-69
2023/12/15 05:33:35;;;;;;;1.27;0.88;;;6.00;99.90;;;;;;6190241;23;20343;-69
2023/12/15 05:36:01;;;;;;;5.38;1.60;;;6.00;99.90;;;;;;6190216;23;20023;-68
2023/12/15 05:38:26;;;;;;;3.72;1.73;;;6.00;99.90;;;;;;6190126;23;20013;-69
2023/12/15 05:40:52;;;;;;;0.85;0.85;;;5.90;99.90;;;;;;6190630;23;20009;-68
2023/12/15 05:43:18;;;;;;;1.55;1.45;;;5.80;99.90;;;;;;6189983;23;20455;-69
2023/12/15 05:45:44;;;;;;;1.45;0.95;;;5.70;99.90;;;;;;6189492;23;20028;-69
2023/12/15 05:48:10;;;;;;;1.23;0.95;;;5.60;99.90;;;;;;6190417;23;20052;-68
2023/12/15 05:50:35;;;;;;;3.50;1.42;;;5.50;99.90;;;;;;6189617;23;20030;-69
2023/12/15 05:56:19;;;;;;;2.90;1.90;;;5.30;99.90;;;;;;6190218;23;20078;-69
2023/12/15 05:58:45;;;;;;;2.85;1.38;;;5.30;99.90;;;;;;6165640;23;20020;-68
2023/12/15 06:01:10;;;;;;;0.88;0.82;;;5.20;99.90;;;;;;6190600;23;20340;-68
2023/12/15 06:07:17;;;;;;;2.55;1.40;;;5.20;99.90;;;;;;6216887;23;20451;-68
2023/12/15 06:09:42;;;;;;;1.75;0.60;;;5.20;99.90;;;;;;6216433;23;20012;-67
2023/12/15 06:12:09;;;;;;;3.13;1.90;;;5.20;99.90;;;;;;6190145;23;20074;-68
2023/12/15 06:15:06;;;;;;;4.43;1.52;;;5.20;99.90;;;;;;6189871;23;20433;-68
2023/12/15 06:17:31;;;;;;;3.08;1.70;;;5.10;99.90;;;;;;6164655;23;20015;-68
2023/12/15 06:19:57;;;;;;;2.00;1.33;;;5.10;99.90;;;;;;6189103;23;20008;-68
2023/12/15 06:22:22;;;;;;;3.25;1.58;;;5.10;99.90;;;;;;6189380;23;20020;-68
2023/12/15 06:24:48;;;;;;;1.77;1.02;;;5.10;99.90;;;;;;6190479;23;20049;-68
2023/12/15 06:27:13;;;;;;;2.08;1.00;;;5.00;99.90;;;;;;6190016;23;20013;-68
2023/12/15 06:33:20;;;;;;;1.13;1.08;;;4.90;99.90;;;;;;6216626;23;20011;-67
2023/12/15 06:35:45;;;;;;;2.38;1.35;;;4.90;99.90;;;;;;6189700;23;20017;-67
2023/12/15 06:38:11;;;;;;;1.35;1.25;;;4.90;99.90;;;;;;6189809;23;20020;-67
2023/12/15 06:40:37;;;;;;;3.67;1.38;;;5.00;99.90;;;;;;6189897;23;20094;-67
2023/12/15 06:43:02;;;;;;;1.98;1.15;;;5.00;99.90;;;;;;6216813;23;20008;-67
2023/12/15 06:45:28;;;;;;;7.43;0.95;;;5.00;99.90;;;;;;6189446;23;20058;-68
2023/12/15 06:47:53;;;;;;;2.72;1.17;;;5.10;99.90;;;;;;6190087;23;20052;-68
2023/12/15 06:54:00;;;;;;;2.53;1.40;;;5.10;99.90;;;;;;6216018;23;20098;-68
2023/12/15 06:56:25;;;;;;;3.90;1.77;;;5.20;99.90;;;;;;6165123;23;20020;-67
2023/12/15 06:58:51;;;;;;;2.35;1.10;;;5.20;99.90;;;;;;6165166;23;20016;-67
2023/12/15 07:01:16;;;;;;;1.55;0.88;;;5.20;99.90;;;;;;6164412;23;20008;-67
2023/12/15 07:04:21;;;;;;;0.57;0.57;;;5.30;99.90;;;;;;6189607;23;20017;-67
2023/12/15 07:06:47;;;;;;;2.17;1.38;;;5.40;99.90;;;;;;6164927;23;20067;-67
2023/12/15 07:09:12;;;;;;;1.70;0.88;;;5.40;99.90;;;;;;6189497;23;20013;-67
2023/12/15 07:11:39;;;;;;;2.55;0.95;;;5.50;99.90;;;;;;6189683;23;20009;-67
2023/12/15 07:14:05;;;;;;;1.58;1.27;;;5.50;99.90;;;;;;6189092;23;20310;-67
2023/12/15 07:16:30;;;;;;;3.00;1.23;;;5.50;99.90;;;;;;6189120;23;20005;-67
2023/12/15 07:18:56;;;;;;;1.17;1.02;;;5.50;99.90;;;;;;6188822;23;20031;-68
2023/12/15 07:21:21;;;;;;;1.58;1.45;;;5.60;99.90;;;;;;6189185;23;20067;-68
2023/12/15 07:23:47;;;;;;;1.98;1.73;;;5.60;99.90;;;;;;6188948;23;20082;-67
2023/12/15 07:26:13;;;;;;;3.20;1.48;;;5.60;99.90;;;;;;6189465;23;20433;-67
2023/12/15 07:28:38;;;;;;;1.00;0.95;;;5.70;99.90;;;;;;6189012;23;20331;-67
2023/12/15 07:31:04;;;;;;;2.13;1.15;;;5.70;99.90;;;;;;6189583;23;20005;-68
2023/12/15 07:33:30;;;;;;;2.72;1.75;;;5.70;99.90;;;;;;6215275;23;20012;-68
2023/12/15 07:35:55;;;;;;;2.17;1.58;;;5.80;99.90;;;;;;6188203;23;20032;-69
2023/12/15 07:38:21;;;;;;;0.65;0.65;;;5.80;99.90;;;;;;6189341;23;20016;-68
2023/12/15 07:44:27;;;;;;;4.18;1.80;;;5.80;99.90;;;;;;6215652;23;20059;-68
2023/12/15 07:46:55;;;;;;;3.65;1.10;;;5.80;99.90;;;;;;6188657;23;20379;-68
2023/12/15 07:49:30;;;;;;;0.63;0.63;;;5.80;99.90;;;;;;6186745;23;20423;-68
2023/12/15 07:56:14;;;;;;;2.60;1.67;;;5.70;99.90;;;;;;6215133;23;20027;-68
2023/12/15 07:58:39;;;;;;;1.02;0.80;;;5.60;99.90;;;;;;6215134;23;20440;-69
2023/12/15 08:01:05;;;;;;;2.92;1.23;;;5.60;99.90;;;;;;6215734;23;20012;-70
2023/12/15 08:03:31;;;;;;;2.33;1.02;;;5.60;99.90;;;;;;6189065;23;20091;-70
2023/12/15 08:05:56;;;;;;;2.13;1.88;;;5.50;99.90;;;;;;6188428;23;20030;-70
2023/12/15 08:08:24;;;;;;;2.08;1.23;;;5.50;99.90;;;;;;6163599;23;20062;-70
2023/12/15 08:10:49;;;;;;;1.60;1.13;;;5.50;99.90;;;;;;6188521;23;20017;-70
2023/12/15 08:13:15;;;;;;;1.45;1.35;;;5.40;99.90;;;;;;6188681;23;20099;-70
2023/12/15 08:15:41;;;;;;;0.63;0.63;;;5.40;99.90;;;;;;6215255;23;20024;-70
2023/12/15 08:18:36;;;;;;;1.95;1.02;;;5.50;99.90;;;;;;6188099;23;20013;-69
2023/12/15 08:21:01;;;;;;;0.55;0.55;;;5.40;99.90;;;;;;6215311;23;20012;-69
2023/12/15 08:23:27;;;;;;;4.18;0.85;;;5.50;99.90;;;;;;6189091;23;20020;-69
2023/12/15 08:25:53;;;;;;;2.88;0.70;;;5.50;99.90;;;;;;6188932;23;20043;-68
2023/12/15 08:28:20;;;;;;;4.07;1.35;;;5.50;99.90;;;;;;6215581;23;20013;-69
2023/12/15 08:31:13;;;;;;;1.55;1.45;;;5.50;99.90;;;;;;6187772;23;20017;-69
2023/12/15 08:33:39;;;;;;;1.67;1.35;;;5.50;99.90;;;;;;6188585;23;20016;-69
2023/12/15 08:39:27;;;;;;;0.68;0.40;;;5.40;99.90;;;;;;6188703;23;20379;-69
2023/12/15 08:41:53;;;;;;;0.50;0.50;;;5.40;99.90;;;;;;6215468;23;20012;-69
2023/12/15 08:44:18;;;;;;;1.02;0.75;;;5.40;99.90;;;;;;6188826;23;20132;-69
2023/12/15 08:46:44;;;;;;;2.85;2.00;;;5.50;99.90;;;;;;6188550;23;20023;-69
2023/12/15 08:49:09;;;;;;;1.73;0.88;;;5.50;99.90;;;;;;6188763;23;20019;-69
2023/12/15 08:51:35;;;;;;;1.80;1.70;;;5.50;99.90;;;;;;6215631;23;20016;-69
2023/12/15 08:54:00;;;;;;;2.17;1.08;;;5.60;99.90;;;;;;6189898;23;20019;-69
2023/12/15 09:00:07;;;;;;;1.83;1.60;;;5.80;99.90;;;;;;6217668;23;20008;-69
2023/12/15 09:02:33;;;;;;;2.63;1.08;;;5.90;99.90;;;;;;6190378;23;20015;-69
2023/12/15 09:05:00;;;;;;;1.38;1.27;;;6.00;99.90;;;;;;6190484;23;20040;-68
2023/12/15 09:07:26;;;;;;;1.85;1.00;;;6.10;99.90;;;;;;6190943;23;20012;-69
2023/12/15 09:09:52;;;;;;;1.27;0.68;;;6.10;99.90;;;;;;6217860;23;20440;-69
2023/12/15 09:12:39;;;;;;;2.83;0.77;;;6.20;99.90;;;;;;6189618;23;20012;-69
2023/12/15 09:15:05;;;;;;;2.38;1.65;;;6.30;99.90;;;;;;6190427;23;20016;-69
2023/12/15 09:17:30;;;;;;;2.85;0.65;;;6.30;99.90;;;;;;6190652;23;20082;-70
2023/12/15 09:20:04;;;;;;;2.00;0.63;;;6.30;99.90;;;;;;6190450;23;20012;-70
2023/12/15 09:22:37;;;;;;;0.35;0.28;;;6.40;99.90;;;;;;6190115;23;20013;-70
2023/12/15 09:25:04;;;;;;;0.52;0.52;;;6.50;99.90;;;;;;6165722;23;20048;-70
2023/12/15 09:27:29;;;;;;;0.50;0.50;;;6.60;99.90;;;;;;6190221;23;20436;-71
2023/12/15 09:29:59;;;;;;;0.70;0.60;;;6.70;99.90;;;;;;6189056;23;20067;-71
2023/12/15 09:32:25;;;;;;;0.45;0.35;;;6.80;99.90;;;;;;6189913;23;20444;-71
2023/12/15 09:34:50;;;;;;;0.30;0.30;;;6.90;99.90;;;;;;6189378;23;20024;-71
2023/12/15 09:37:16;;;;;;;0.20;0.20;;;6.90;99.90;;;;;;6216718;23;20432;-72
2023/12/15 09:39:43;;;;;;;3.90;2.30;;;7.00;99.90;;;;;;6189389;23;20012;-70
2023/12/15 09:42:08;;;;;;;1.08;0.60;;;7.10;99.90;;;;;;6190223;23;20015;-70
2023/12/15 09:44:34;;;;;;;2.80;1.00;;;7.20;99.90;;;;;;6189393;23;20395;-71
2023/12/15 09:47:01;;;;;;;0.10;0.10;;;7.20;99.90;;;;;;6189800;23;20019;-71
2023/12/15 09:49:31;;;;;;;0.20;0.20;;;7.30;99.90;;;;;;6190077;23;20092;-71
2023/12/15 09:52:02;;;;;;;0.50;0.50;;;7.30;99.90;;;;;;6189914;23;20008;-71
2023/12/15 09:54:29;;;;;;;0.30;0.30;;;7.40;99.90;;;;;;6189223;23;20384;-71
2023/12/15 09:56:55;;;;;;;0.75;0.52;;;7.40;99.90;;;;;;6189424;23;20005;-71
2023/12/15 09:59:21;;;;;;;0.85;0.60;;;7.50;99.90;;;;;;6216581;23;20329;-71
2023/12/15 10:01:47;;;;;;;1.02;0.75;;;7.60;99.90;;;;;;6189337;23;20016;-71
2023/12/15 10:04:12;;;;;;;5.45;2.28;;;7.60;99.90;;;;;;6188380;23;20416;-71
2023/12/15 10:06:38;;;;;;;2.15;0.47;;;7.70;99.90;;;;;;6189115;23;20012;-71
2023/12/15 10:09:13;;;;;;;2.05;0.68;;;7.70;99.90;;;;;;6189719;23;20013;-70
2023/12/15 10:11:43;;;;;;;1.30;0.47;;;7.80;99.90;;;;;;6190423;23;20091;-70
2023/12/15 10:14:09;;;;;;;6.80;1.10;;;7.80;99.90;;;;;;6190152;23;20327;-71
2023/12/15 10:16:36;;;;;;;0.93;0.50;;;7.90;99.90;;;;;;6189839;23;20013;-70
2023/12/15 10:19:03;;;;;;;0.52;0.50;;;7.90;99.90;;;;;;6189603;23;20013;-71
2023/12/15 10:21:31;;;;;;;1.13;0.57;;;8.00;99.90;;;;;;6215629;23;20008;-72
2023/12/15 10:23:59;;;;;;;1.10;0.75;;;8.00;99.90;;;;;;6186700;23;20005;-72
2023/12/15 10:26:26;;;;;;;6.88;1.45;;;8.10;99.90;;;;;;6188660;23;20019;-73
2023/12/15 10:28:57;;;;;;;0.77;0.77;;;8.10;99.90;;;;;;6189886;23;20071;-71
2023/12/15 10:31:26;;;;;;;3.58;1.10;;;8.10;99.90;;;;;;6215957;23;20009;-71
2023/12/15 10:33:52;;;;;;;5.70;0.88;;;8.20;99.90;;;;;;6187676;23;20376;-73
2023/12/15 10:36:18;;;;;;;4.57;1.23;;;8.20;99.90;;;;;;6164226;23;20013;-71
2023/12/15 10:38:44;;;;;;;0.52;0.52;;;8.20;99.90;;;;;;6214671;23;20023;-72
2023/12/15 10:41:12;;;;;;;2.53;1.10;;;8.20;99.90;;;;;;6188342;23;20056;-73
2023/12/15 10:43:39;;;;;;;0.77;0.77;;;8.20;99.90;;;;;;6187116;23;20008;-72
2023/12/15 10:46:09;;;;;;;1.75;0.43;;;8.20;99.90;;;;;;6187547;23;20440;-72
2023/12/15 10:48:35;;;;;;;0.40;0.20;;;8.30;99.90;;;;;;6188381;23;20376;-72
2023/12/15 10:51:03;;;;;;;0.60;0.28;;;8.30;99.90;;;;;;6188029;23;20340;-72
2023/12/15 10:53:31;;;;;;;7.63;1.67;;;8.30;99.90;;;;;;6163748;23;20013;-71
2023/12/15 10:55:58;;;;;;;3.00;0.38;;;8.30;99.90;;;;;;6164636;23;20071;-71
2023/12/15 10:58:24;;;;;;;0.40;0.40;;;8.40;99.90;;;;;;6188187;23;20016;-71
2023/12/15 11:00:53;;;;;;;2.63;0.47;;;8.40;99.90;;;;;;6215702;23;20005;-71
2023/12/15 11:03:19;;;;;;;3.40;0.40;;;8.40;99.90;;;;;;6214188;23;20038;-72
2023/12/15 11:05:45;;;;;;;1.98;1.17;;;8.40;99.90;;;;;;6188499;23;20088;-72
2023/12/15 11:08:13;;;;;;;0.40;0.13;;;8.50;99.90;;;;;;6187846;23;20455;-72
2023/12/15 11:10:38;;;;;;;10.20;1.45;;;8.50;99.90;;;;;;6215352;23;20013;-71
2023/12/15 11:13:47;;;;;;;0.85;0.50;;;8.50;99.90;;;;;;6187933;23;20020;-70
2023/12/15 11:16:13;;;;;;;0.17;0.17;;;8.50;99.90;;;;;;6215530;23;20388;-71
2023/12/15 11:18:40;;;;;;;0.47;0.47;;;8.60;99.90;;;;;;6188417;23;20017;-71
2023/12/15 11:21:09;;;;;;;1.17;0.98;;;8.60;99.90;;;;;;6188224;23;20504;-72
2023/12/15 11:23:50;;;;;;;11.80;0.90;;;8.70;99.90;;;;;;6212660;23;20023;-70
2023/12/15 11:26:39;;;;;;;0.30;0.30;;;8.60;99.90;;;;;;6188565;23;20313;-71
2023/12/15 11:29:11;;;;;;;2.25;1.63;;;8.60;99.90;;;;;;6162919;23;20035;-72
2023/12/15 11:31:54;;;;;;;0.90;0.85;;;8.70;99.90;;;;;;6215370;23;20432;-71
2023/12/15 11:34:39;;;;;;;1.45;1.30;;;8.70;99.90;;;;;;6188372;23;20016;-72
2023/12/15 11:37:06;;;;;;;0.50;0.32;;;8.70;99.90;;;;;;6188114;23;20067;-70
2023/12/15 11:39:35;;;;;;;0.88;0.35;;;8.70;99.90;;;;;;6187768;23;20012;-72
2023/12/15 11:42:00;;;;;;;1.75;1.65;;;8.70;99.90;;;;;;6187299;23;20012;-72
2023/12/15 11:44:27;;;;;;;1.30;0.35;;;8.70;99.90;;;;;;6185014;23;20020;-71
2023/12/15 11:46:53;;;;;;;0.10;0.10;;;8.80;99.90;;;;;;6186794;23;20079;-72
2023/12/15 11:49:23;;;;;;;1.17;1.02;;;8.80;99.90;;;;;;6187377;23;20440;-72
2023/12/15 11:51:51;;;;;;;0.30;0.30;;;8.80;99.90;;;;;;6187156;23;20012;-70
2023/12/15 11:54:17;;;;;;;0.20;0.20;;;8.80;99.90;;;;;;6186946;23;20024;-71
2023/12/15 11:56:44;;;;;;;4.65;0.68;;;8.80;99.90;;;;;;6214709;23;20012;-71
2023/12/15 11:59:09;;;;;;;0.20;0.20;;;8.90;99.90;;;;;;6213250;23;20055;-72
2023/12/15 12:01:38;;;;;;;0.52;0.32;;;8.90;99.90;;;;;;6215269;23;20436;-71
2023/12/15 12:04:04;;;;;;;0.95;0.90;;;8.90;99.90;;;;;;6186548;23;20135;-71
2023/12/15 12:06:32;;;;;;;0.10;0.10;;;9.00;99.90;;;;;;6186112;23;20008;-73
2023/12/15 12:08:58;;;;;;;0.32;0.32;;;9.00;99.90;;;;;;6186398;23;20008;-71
2023/12/15 12:11:24;;;;;;;2.75;0.60;;;9.00;99.90;;;;;;6215175;23;20070;-70
2023/12/15 12:13:57;;;;;;;4.25;0.82;;;9.10;99.90;;;;;;6187864;23;20020;-72
2023/12/15 12:16:22;;;;;;;0.28;0.28;;;9.10;99.90;;;;;;6187236;23;20016;-70
2023/12/15 12:18:49;;;;;;;2.28;1.17;;;9.20;99.90;;;;;;6188654;23;20334;-72
2023/12/15 12:21:16;;;;;;;1.48;1.38;;;9.20;99.90;;;;;;6188219;23;20019;-70
2023/12/15 12:23:42;;;;;;;0.82;0.47;;;9.20;99.90;;;;;;6187927;23;20017;-71
2023/12/15 12:26:08;;;;;;;8.00;0.63;;;9.20;99.90;;;;;;6188606;23;20013;-72
2023/12/15 12:28:42;;;;;;;0.77;0.30;;;9.20;99.90;;;;;;6188285;23;20022;-71
2023/12/15 12:31:07;;;;;;;1.58;1.48;;;9.20;99.90;;;;;;6187864;23;20008;-71
2023/12/15 12:33:33;;;;;;;2.30;1.00;;;9.20;99.90;;;;;;6163154;23;20459;-71
2023/12/15 12:36:04;;;;;;;2.63;0.95;;;9.10;99.90;;;;;;6188350;23;20017;-70
2023/12/15 12:38:30;;;;;;;3.50;0.88;;;9.20;99.90;;;;;;6188085;23;20016;-71
2023/12/15 12:40:55;;;;;;;0.30;0.30;;;9.30;99.90;;;;;;6187825;23;20430;-72
2023/12/15 12:43:21;;;;;;;5.15;0.55;;;9.30;99.90;;;;;;6187732;23;20009;-72
2023/12/15 12:45:46;;;;;;;0.73;0.68;;;9.30;99.90;;;;;;6186633;23;20095;-72
2023/12/15 12:48:12;;;;;;;0.38;0.30;;;9.30;99.90;;;;;;6186966;23;20012;-72
2023/12/15 12:50:37;;;;;;;1.75;1.08;;;9.30;99.90;;;;;;6187292;23;20453;-71
2023/12/15 12:53:03;;;;;;;3.58;1.48;;;9.30;99.90;;;;;;6163354;23;20459;-71
2023/12/15 12:55:29;;;;;;;0.52;0.52;;;9.30;99.90;;;;;;6188295;23;20092;-71
2023/12/15 12:57:55;;;;;;;3.30;3.00;;;9.30;99.90;;;;;;6187042;23;20065;-71
2023/12/15 13:00:21;;;;;;;0.55;0.25;;;9.40;99.90;;;;;;6187123;23;20051;-70
2023/12/15 13:02:46;;;;;;;13.25;1.00;;;9.40;99.90;;;;;;6214734;23;20013;-71
2023/12/15 13:05:12;;;;;;;1.50;0.98;;;9.40;99.90;;;;;;6187703;23;20019;-70
2023/12/15 13:07:38;;;;;;;4.57;2.30;;;9.40;99.90;;;;;;6188280;23;20067;-71
2023/12/15 13:10:14;;;;;;;1.85;0.90;;;9.30;99.90;;;;;;6187717;23;20047;-70
2023/12/15 13:12:42;;;;;;;1.33;0.77;;;9.40;99.90;;;;;;6214437;23;20017;-70
2023/12/15 13:15:12;;;;;;;2.42;0.63;;;9.40;99.90;;;;;;6214177;23;20376;-70
2023/12/15 13:17:38;;;;;;;0.88;0.88;;;9.40;99.90;;;;;;6188815;23;20008;-70
2023/12/15 13:20:04;;;;;;;0.88;0.88;;;9.50;99.90;;;;;;6186757;23;20043;-72
2023/12/15 13:22:29;;;;;;;0.45;0.40;;;9.40;99.90;;;;;;6187682;23;20084;-71
2023/12/15 13:28:10;;;;;;;3.70;3.40;;;9.50;99.90;;;;;;6185669;23;20020;-71
2023/12/15 13:30:36;;;;;;;1.05;0.75;;;9.40;99.90;;;;;;6214699;23;20016;-70
2023/12/15 13:33:01;;;;;;;0.30;0.30;;;9.40;99.90;;;;;;6188232;23;20039;-70
2023/12/15 13:35:27;;;;;;;0.60;0.60;;;9.30;99.90;;;;;;6188823;23;20016;-71
2023/12/15 13:37:52;;;;;;;0.35;0.35;;;9.30;99.90;;;;;;6188579;23;20441;-70
2023/12/15 13:40:18;;;;;;;0.10;0.10;;;9.30;99.90;;;;;;6164842;23;20436;-71
2023/12/15 13:42:44;;;;;;;1.48;0.30;;;9.30;99.90;;;;;;6165473;23;20353;-70
2023/12/15 13:45:10;;;;;;;0.65;0.65;;;9.30;99.90;;;;;;6190382;23;20016;-70
2023/12/15 13:47:35;;;;;;;0.20;0.20;;;9.30;99.90;;;;;;6190566;23;20020;-70